Hobbs, Indiana
Current Conditions -  °F | °C
As of 7:15 PM on Thursday 27 Nov 2014 (Local Time) from KOKK Reporting Station
Overcast Overcast  
Wind Chill: 14°   Ceiling: 3200
Heat Index: 27°   Visibility: 10mi
Dew Point: 18°   Wind: 16mph
Humidity: 69%   Direction: 290°WNW
Pressure: 30.37"   Gusts: NA
Location:  40.28°N, 85.95°W
Report Text: KOKK 280015Z AUTO 29014KT 10SM OVC032 M03/M08 A3037 RMK AO1
Loading
Personal Weather Stations






























Interactive Weather Map New forecast layout! Learn more

10-Day Weather Forecast

Advertisements
Track Severe Weather on mobile